Terminal Aerodrome Forecast
Issued by NWS Birmingham, AL

Home | Current Version | Previous Version | Text Only | Print | Product List | Glossary On
Versions: 1 2 3 4 5 6 7 8 9 10 11 12 13 14 15 16 17 18 19 20 21 22 23 24 25 26 27 28 29
000
FTUS44 KBMX 222349 CCA
TAFBHM
TAF COR
KBHM 222349Z 2300/2324 28009KT P6SM -RA OVC007
     FM230300 30010G16KT 5SM -RA BR OVC015
     FM230700 31015G24KT P6SM OVC015=

USA.gov is the U.S. government's official web portal to all federal, state and local government web resources and services.